Details From VNKT - Kathmandu Tribhuvan Intl
To VQPR - Paro
Flight Number -
Tags Generated
Created
Modified
Stats Distance 218 nm / 403 km
Max Altitude 0 ft / 0 m
Waypoints 3
Social Downloads 46
Likes 0
Share VATSIM

Download

Looking for another format? Having issues loading an existing format? Contact us
Advertisement - Login to hide

Notes

Generated

Route

VNKT PR VQPR

ID Type Via Altitude Latitude Longitude Leg Dist Tot Dist Heading (true) Name
O VNKT APT - 0 ft / 0 m 27.68381˚ 85.35342˚ - 0 nm - -
PR NDB - 0 ft / 0 m 27.40034˚ 89.41542˚ 216 nm 216 nm 94° / 95° PARO NDB
O VQPR APT - 0 ft / 0 m 27.41091˚ 89.41972˚ 0 nm 217 nm 20° / 20° -

Altitude Profile

Advertisement - Login to hide

Weather


0- 5 10 15 20 25 30 35+ Temperature / ° C

Clouds and Precipitation
Forecast for 2017-12-17 06:00 UTC. Updated an hour ago

Ground ~20,000 ft ~40,000 ft Winds

VNKT

Details ICAO VNKT (KTM)
Name Kathmandu Tribhuvan Intl
Region Nepal
Timezone Asia/Kathmandu (UTC+5.8)
Stats Elevation 4,390 ft / 1,338 m (AMSL)
Location 27.696583° 85.359100°
Runways 1
Magnetic Variation 0.492° E

METAR

VNKT 170420Z 00000KT 4000 HZ FEW015 13/06 Q1026 BECMG FM0520Z 5000 HZ

Decode

TAF

TAF VNKT 162300Z 1700/1724 VRB02KT 4000 BR FEW010 PROB40 1701/1703 2000 BR BECMG 1704/1705 12003KT 5000 HZ FEW015 BECMG 1707/1708 23008KT 8000 FEW020 BECMG 1714/1715 00000KT 6000 FEW015

Decode

Departure Runways

ID Width Length Bearing (true) Bearing (mag) Surface Threshold Offset Overrun Length
02 148 ft / 45 m 10,017 ft / 3,053 m 21.50° 21.01° Asphalt 0 ft / 0 m 0 ft / 0 m
20 148 ft / 45 m 10,017 ft / 3,053 m 201.51° 201.02° Asphalt 400 ft / 122 m 0 ft / 0 m

VQPR

Details ICAO VQPR (PBH)
Name PARO
Region Bhutan
Timezone Asia/Thimphu (UTC+6.0)
Stats Elevation 7,332 ft / 2,235 m (AMSL)
Location 27.403190° 89.424605°
Runways 1
Magnetic Variation 0.125° E

METAR

VQPR 170430Z 00000KT 9999 SKC 10/M03 Q1027

Decode

TAF

Not found

Destination Runways

ID Width Length Bearing (true) Bearing (mag) Surface Threshold Offset Overrun Length
15 95 ft / 29 m 6,462 ft / 1,970 m 150.65° 150.52° Asphalt 0 ft / 0 m 390 ft / 119 m
33 95 ft / 29 m 6,462 ft / 1,970 m 330.65° 330.52° Asphalt 0 ft / 0 m 217 ft / 66 m

Popular Alternatives